sensor_id;sensor_type;location;lat;lon;timestamp;P1;durP1;ratioP1;P2;durP2;ratioP2
36457;SDS011;22480;50.546;12.292;2023-12-20T00:00:13;6.47;;;4.38;;
36457;SDS011;22480;50.546;12.292;2023-12-20T00:02:39;6.65;;;4.70;;
36457;SDS011;22480;50.546;12.292;2023-12-20T00:05:05;8.10;;;4.82;;
36457;SDS011;22480;50.546;12.292;2023-12-20T00:07:31;5.32;;;4.57;;
36457;SDS011;22480;50.546;12.292;2023-12-20T00:09:56;7.00;;;4.43;;
36457;SDS011;22480;50.546;12.292;2023-12-20T00:12:22;5.28;;;4.20;;
36457;SDS011;22480;50.546;12.292;2023-12-20T00:14:48;5.78;;;4.32;;
36457;SDS011;22480;50.546;12.292;2023-12-20T00:17:13;6.68;;;4.70;;
36457;SDS011;22480;50.546;12.292;2023-12-20T00:19:39;6.57;;;4.60;;
36457;SDS011;22480;50.546;12.292;2023-12-20T00:22:05;5.47;;;4.28;;
36457;SDS011;22480;50.546;12.292;2023-12-20T00:24:31;5.32;;;4.13;;
36457;SDS011;22480;50.546;12.292;2023-12-20T00:26:56;4.18;;;3.60;;
36457;SDS011;22480;50.546;12.292;2023-12-20T00:29:22;5.63;;;4.13;;
36457;SDS011;22480;50.546;12.292;2023-12-20T00:31:47;5.30;;;4.22;;
36457;SDS011;22480;50.546;12.292;2023-12-20T00:34:13;5.20;;;4.35;;
36457;SDS011;22480;50.546;12.292;2023-12-20T00:36:39;6.45;;;4.63;;
36457;SDS011;22480;50.546;12.292;2023-12-20T00:39:04;4.78;;;3.50;;
36457;SDS011;22480;50.546;12.292;2023-12-20T00:41:31;5.25;;;3.65;;
36457;SDS011;22480;50.546;12.292;2023-12-20T00:43:57;7.25;;;4.30;;
36457;SDS011;22480;50.546;12.292;2023-12-20T00:46:23;6.18;;;3.88;;
36457;SDS011;22480;50.546;12.292;2023-12-20T00:48:48;3.67;;;3.05;;
36457;SDS011;22480;50.546;12.292;2023-12-20T00:51:14;6.55;;;3.75;;
36457;SDS011;22480;50.546;12.292;2023-12-20T00:53:40;5.82;;;4.38;;
36457;SDS011;22480;50.546;12.292;2023-12-20T00:56:05;4.72;;;3.95;;
36457;SDS011;22480;50.546;12.292;2023-12-20T00:58:31;4.80;;;3.97;;
36457;SDS011;22480;50.546;12.292;2023-12-20T01:00:57;5.13;;;3.90;;
36457;SDS011;22480;50.546;12.292;2023-12-20T01:03:23;6.55;;;4.47;;
36457;SDS011;22480;50.546;12.292;2023-12-20T01:05:49;3.72;;;2.80;;
36457;SDS011;22480;50.546;12.292;2023-12-20T01:08:14;4.53;;;3.95;;
36457;SDS011;22480;50.546;12.292;2023-12-20T01:10:40;4.32;;;3.50;;
36457;SDS011;22480;50.546;12.292;2023-12-20T01:13:06;5.93;;;3.72;;
36457;SDS011;22480;50.546;12.292;2023-12-20T01:15:31;4.55;;;3.50;;
36457;SDS011;22480;50.546;12.292;2023-12-20T01:17:57;4.93;;;3.72;;
36457;SDS011;22480;50.546;12.292;2023-12-20T01:20:24;5.50;;;3.05;;
36457;SDS011;22480;50.546;12.292;2023-12-20T01:22:50;3.90;;;3.10;;
36457;SDS011;22480;50.546;12.292;2023-12-20T01:25:16;5.75;;;3.42;;
36457;SDS011;22480;50.546;12.292;2023-12-20T01:27:41;5.18;;;3.40;;
36457;SDS011;22480;50.546;12.292;2023-12-20T01:30:07;5.07;;;3.13;;
36457;SDS011;22480;50.546;12.292;2023-12-20T01:32:34;4.82;;;3.40;;
36457;SDS011;22480;50.546;12.292;2023-12-20T01:34:59;3.85;;;2.67;;
36457;SDS011;22480;50.546;12.292;2023-12-20T01:37:25;5.15;;;3.25;;
36457;SDS011;22480;50.546;12.292;2023-12-20T01:39:51;5.10;;;3.28;;
36457;SDS011;22480;50.546;12.292;2023-12-20T01:42:18;4.05;;;2.83;;
36457;SDS011;22480;50.546;12.292;2023-12-20T01:44:43;4.18;;;2.78;;
36457;SDS011;22480;50.546;12.292;2023-12-20T01:47:09;4.03;;;2.90;;
36457;SDS011;22480;50.546;12.292;2023-12-20T01:49:35;3.75;;;2.80;;
36457;SDS011;22480;50.546;12.292;2023-12-20T01:52:01;3.25;;;2.63;;
36457;SDS011;22480;50.546;12.292;2023-12-20T01:54:26;3.83;;;2.88;;
36457;SDS011;22480;50.546;12.292;2023-12-20T01:56:52;3.03;;;2.45;;
36457;SDS011;22480;50.546;12.292;2023-12-20T01:59:18;3.45;;;2.63;;
36457;SDS011;22480;50.546;12.292;2023-12-20T02:01:46;4.78;;;3.65;;
36457;SDS011;22480;50.546;12.292;2023-12-20T02:04:11;3.03;;;2.22;;
36457;SDS011;22480;50.546;12.292;2023-12-20T02:06:37;3.42;;;2.60;;
36457;SDS011;22480;50.546;12.292;2023-12-20T02:09:05;3.35;;;2.33;;
36457;SDS011;22480;50.546;12.292;2023-12-20T02:11:32;2.70;;;2.35;;
36457;SDS011;22480;50.546;12.292;2023-12-20T02:13:58;4.53;;;2.08;;
36457;SDS011;22480;50.546;12.292;2023-12-20T02:16:24;3.15;;;2.20;;
36457;SDS011;22480;50.546;12.292;2023-12-20T02:18:50;2.55;;;2.03;;
36457;SDS011;22480;50.546;12.292;2023-12-20T02:21:15;2.90;;;2.15;;
36457;SDS011;22480;50.546;12.292;2023-12-20T02:23:41;2.85;;;2.28;;
36457;SDS011;22480;50.546;12.292;2023-12-20T02:26:06;2.65;;;2.03;;
36457;SDS011;22480;50.546;12.292;2023-12-20T02:28:32;2.80;;;1.83;;
36457;SDS011;22480;50.546;12.292;2023-12-20T02:30:59;2.72;;;2.17;;
36457;SDS011;22480;50.546;12.292;2023-12-20T02:33:25;2.70;;;2.03;;
36457;SDS011;22480;50.546;12.292;2023-12-20T02:35:50;3.85;;;2.58;;
36457;SDS011;22480;50.546;12.292;2023-12-20T02:38:17;3.65;;;2.30;;
36457;SDS011;22480;50.546;12.292;2023-12-20T02:40:43;3.55;;;2.33;;
36457;SDS011;22480;50.546;12.292;2023-12-20T02:43:09;2.72;;;2.00;;
36457;SDS011;22480;50.546;12.292;2023-12-20T02:45:34;2.15;;;1.63;;
36457;SDS011;22480;50.546;12.292;2023-12-20T02:48:00;1.95;;;1.60;;
36457;SDS011;22480;50.546;12.292;2023-12-20T02:50:25;2.08;;;1.58;;
36457;SDS011;22480;50.546;12.292;2023-12-20T02:52:51;2.10;;;1.73;;
36457;SDS011;22480;50.546;12.292;2023-12-20T02:55:17;1.90;;;1.70;;
36457;SDS011;22480;50.546;12.292;2023-12-20T02:57:42;2.58;;;1.70;;
36457;SDS011;22480;50.546;12.292;2023-12-20T03:00:08;1.42;;;1.33;;
36457;SDS011;22480;50.546;12.292;2023-12-20T03:02:35;1.73;;;1.45;;
36457;SDS011;22480;50.546;12.292;2023-12-20T03:05:02;1.77;;;1.30;;
36457;SDS011;22480;50.546;12.292;2023-12-20T03:07:27;1.67;;;1.40;;
36457;SDS011;22480;50.546;12.292;2023-12-20T03:09:53;1.95;;;1.60;;
36457;SDS011;22480;50.546;12.292;2023-12-20T03:12:19;2.35;;;1.38;;
36457;SDS011;22480;50.546;12.292;2023-12-20T03:14:45;1.58;;;1.30;;
36457;SDS011;22480;50.546;12.292;2023-12-20T03:17:10;1.65;;;1.13;;
36457;SDS011;22480;50.546;12.292;2023-12-20T03:19:36;1.65;;;1.17;;
36457;SDS011;22480;50.546;12.292;2023-12-20T03:22:01;1.55;;;1.13;;
36457;SDS011;22480;50.546;12.292;2023-12-20T03:24:27;1.23;;;0.82;;
36457;SDS011;22480;50.546;12.292;2023-12-20T03:26:53;1.08;;;0.90;;
36457;SDS011;22480;50.546;12.292;2023-12-20T03:29:19;1.05;;;0.90;;
36457;SDS011;22480;50.546;12.292;2023-12-20T03:31:44;1.50;;;1.30;;
36457;SDS011;22480;50.546;12.292;2023-12-20T03:34:10;0.93;;;0.82;;
36457;SDS011;22480;50.546;12.292;2023-12-20T03:36:36;2.00;;;1.00;;
36457;SDS011;22480;50.546;12.292;2023-12-20T03:39:02;1.35;;;0.80;;
36457;SDS011;22480;50.546;12.292;2023-12-20T03:41:28;1.50;;;1.00;;
36457;SDS011;22480;50.546;12.292;2023-12-20T03:43:54;1.38;;;1.00;;
36457;SDS011;22480;50.546;12.292;2023-12-20T03:46:19;1.25;;;0.90;;
36457;SDS011;22480;50.546;12.292;2023-12-20T03:48:45;1.10;;;1.00;;
36457;SDS011;22480;50.546;12.292;2023-12-20T03:51:11;1.20;;;1.00;;
36457;SDS011;22480;50.546;12.292;2023-12-20T03:53:37;0.82;;;0.73;;
36457;SDS011;22480;50.546;12.292;2023-12-20T03:56:03;1.15;;;0.70;;
36457;SDS011;22480;50.546;12.292;2023-12-20T03:58:28;1.33;;;0.93;;
36457;SDS011;22480;50.546;12.292;2023-12-20T04:00:54;1.20;;;0.90;;
36457;SDS011;22480;50.546;12.292;2023-12-20T04:03:20;1.30;;;1.00;;
36457;SDS011;22480;50.546;12.292;2023-12-20T04:05:45;1.52;;;0.90;;
36457;SDS011;22480;50.546;12.292;2023-12-20T04:08:11;1.52;;;1.08;;
36457;SDS011;22480;50.546;12.292;2023-12-20T04:10:37;0.75;;;0.75;;
36457;SDS011;22480;50.546;12.292;2023-12-20T04:13:03;0.65;;;0.60;;
36457;SDS011;22480;50.546;12.292;2023-12-20T04:15:29;0.93;;;0.90;;
36457;SDS011;22480;50.546;12.292;2023-12-20T04:17:55;1.15;;;0.90;;
36457;SDS011;22480;50.546;12.292;2023-12-20T04:20:20;1.05;;;0.80;;
36457;SDS011;22480;50.546;12.292;2023-12-20T04:22:46;2.15;;;1.02;;
36457;SDS011;22480;50.546;12.292;2023-12-20T04:25:12;2.22;;;1.83;;
36457;SDS011;22480;50.546;12.292;2023-12-20T04:27:37;1.27;;;1.00;;
36457;SDS011;22480;50.546;12.292;2023-12-20T04:30:03;1.30;;;0.95;;
36457;SDS011;22480;50.546;12.292;2023-12-20T04:32:29;0.60;;;0.60;;
36457;SDS011;22480;50.546;12.292;2023-12-20T04:34:55;0.70;;;0.70;;
36457;SDS011;22480;50.546;12.292;2023-12-20T04:37:20;1.63;;;0.90;;
36457;SDS011;22480;50.546;12.292;2023-12-20T04:39:46;0.70;;;0.70;;
36457;SDS011;22480;50.546;12.292;2023-12-20T04:42:12;1.15;;;0.70;;
36457;SDS011;22480;50.546;12.292;2023-12-20T04:44:37;0.60;;;0.60;;
36457;SDS011;22480;50.546;12.292;2023-12-20T04:47:03;0.80;;;0.70;;
36457;SDS011;22480;50.546;12.292;2023-12-20T04:49:29;2.47;;;1.00;;
36457;SDS011;22480;50.546;12.292;2023-12-20T04:51:54;0.80;;;0.77;;
36457;SDS011;22480;50.546;12.292;2023-12-20T04:54:21;0.80;;;0.80;;
36457;SDS011;22480;50.546;12.292;2023-12-20T04:56:46;1.80;;;1.05;;
36457;SDS011;22480;50.546;12.292;2023-12-20T04:59:12;2.58;;;0.85;;
36457;SDS011;22480;50.546;12.292;2023-12-20T05:01:38;1.60;;;1.10;;
36457;SDS011;22480;50.546;12.292;2023-12-20T05:04:04;1.58;;;1.42;;
36457;SDS011;22480;50.546;12.292;2023-12-20T05:06:29;1.15;;;1.00;;
36457;SDS011;22480;50.546;12.292;2023-12-20T05:08:55;1.27;;;0.73;;
36457;SDS011;22480;50.546;12.292;2023-12-20T05:11:21;2.38;;;0.93;;
36457;SDS011;22480;50.546;12.292;2023-12-20T05:13:47;1.20;;;1.08;;
36457;SDS011;22480;50.546;12.292;2023-12-20T05:16:12;2.33;;;1.05;;
36457;SDS011;22480;50.546;12.292;2023-12-20T05:18:39;0.75;;;0.75;;
36457;SDS011;22480;50.546;12.292;2023-12-20T05:21:05;2.50;;;0.90;;
36457;SDS011;22480;50.546;12.292;2023-12-20T05:23:31;0.90;;;0.73;;
36457;SDS011;22480;50.546;12.292;2023-12-20T05:25:56;1.38;;;0.93;;
36457;SDS011;22480;50.546;12.292;2023-12-20T05:28:24;0.85;;;0.85;;
36457;SDS011;22480;50.546;12.292;2023-12-20T05:30:49;1.25;;;1.00;;
36457;SDS011;22480;50.546;12.292;2023-12-20T05:33:15;1.10;;;0.85;;
36457;SDS011;22480;50.546;12.292;2023-12-20T05:35:41;2.05;;;1.50;;
36457;SDS011;22480;50.546;12.292;2023-12-20T05:38:06;1.45;;;1.20;;
36457;SDS011;22480;50.546;12.292;2023-12-20T05:40:32;3.72;;;2.13;;
36457;SDS011;22480;50.546;12.292;2023-12-20T05:42:57;7.88;;;4.70;;
36457;SDS011;22480;50.546;12.292;2023-12-20T05:45:23;8.10;;;4.70;;
36457;SDS011;22480;50.546;12.292;2023-12-20T05:47:49;2.35;;;1.50;;
36457;SDS011;22480;50.546;12.292;2023-12-20T05:50:14;1.60;;;1.20;;
36457;SDS011;22480;50.546;12.292;2023-12-20T05:52:40;3.47;;;2.08;;
36457;SDS011;22480;50.546;12.292;2023-12-20T05:55:06;2.78;;;1.30;;
36457;SDS011;22480;50.546;12.292;2023-12-20T05:57:32;2.08;;;1.50;;
36457;SDS011;22480;50.546;12.292;2023-12-20T05:59:57;2.33;;;1.30;;
36457;SDS011;22480;50.546;12.292;2023-12-20T06:02:23;9.35;;;2.45;;
36457;SDS011;22480;50.546;12.292;2023-12-20T06:04:49;2.42;;;1.40;;
36457;SDS011;22480;50.546;12.292;2023-12-20T06:07:14;3.78;;;1.60;;
36457;SDS011;22480;50.546;12.292;2023-12-20T06:09:40;3.38;;;2.00;;
36457;SDS011;22480;50.546;12.292;2023-12-20T06:12:07;2.35;;;1.65;;
36457;SDS011;22480;50.546;12.292;2023-12-20T06:14:33;3.72;;;2.15;;
36457;SDS011;22480;50.546;12.292;2023-12-20T06:16:59;3.92;;;2.33;;
36457;SDS011;22480;50.546;12.292;2023-12-20T06:19:26;3.17;;;2.30;;
36457;SDS011;22480;50.546;12.292;2023-12-20T06:21:52;4.68;;;2.47;;
36457;SDS011;22480;50.546;12.292;2023-12-20T06:24:17;3.38;;;2.35;;
36457;SDS011;22480;50.546;12.292;2023-12-20T06:26:43;3.38;;;2.03;;
36457;SDS011;22480;50.546;12.292;2023-12-20T06:29:09;3.05;;;2.65;;
36457;SDS011;22480;50.546;12.292;2023-12-20T06:31:34;3.92;;;2.50;;
36457;SDS011;22480;50.546;12.292;2023-12-20T06:34:00;4.68;;;2.40;;
36457;SDS011;22480;50.546;12.292;2023-12-20T06:36:26;3.42;;;2.33;;
36457;SDS011;22480;50.546;12.292;2023-12-20T06:38:52;4.47;;;2.95;;
36457;SDS011;22480;50.546;12.292;2023-12-20T06:41:18;6.13;;;2.60;;
36457;SDS011;22480;50.546;12.292;2023-12-20T06:43:43;3.88;;;3.03;;
36457;SDS011;22480;50.546;12.292;2023-12-20T06:46:09;4.07;;;2.90;;
36457;SDS011;22480;50.546;12.292;2023-12-20T06:48:35;3.95;;;3.15;;
36457;SDS011;22480;50.546;12.292;2023-12-20T06:51:01;6.20;;;3.50;;
36457;SDS011;22480;50.546;12.292;2023-12-20T06:53:29;5.68;;;3.55;;
36457;SDS011;22480;50.546;12.292;2023-12-20T06:55:55;5.05;;;3.85;;
36457;SDS011;22480;50.546;12.292;2023-12-20T06:58:23;5.78;;;3.97;;
36457;SDS011;22480;50.546;12.292;2023-12-20T07:00:50;6.50;;;4.07;;
36457;SDS011;22480;50.546;12.292;2023-12-20T07:03:16;7.25;;;4.90;;
36457;SDS011;22480;50.546;12.292;2023-12-20T07:05:42;7.80;;;5.15;;
36457;SDS011;22480;50.546;12.292;2023-12-20T07:08:08;9.02;;;5.40;;
36457;SDS011;22480;50.546;12.292;2023-12-20T07:10:34;8.77;;;5.88;;
36457;SDS011;22480;50.546;12.292;2023-12-20T07:12:59;12.60;;;5.85;;
36457;SDS011;22480;50.546;12.292;2023-12-20T07:15:25;9.57;;;6.10;;
36457;SDS011;22480;50.546;12.292;2023-12-20T07:17:53;12.07;;;6.07;;
36457;SDS011;22480;50.546;12.292;2023-12-20T07:20:18;10.90;;;6.80;;
36457;SDS011;22480;50.546;12.292;2023-12-20T07:22:44;14.20;;;7.03;;
36457;SDS011;22480;50.546;12.292;2023-12-20T07:25:10;13.85;;;7.00;;
36457;SDS011;22480;50.546;12.292;2023-12-20T07:27:35;10.75;;;6.20;;
36457;SDS011;22480;50.546;12.292;2023-12-20T07:30:01;11.75;;;7.00;;
36457;SDS011;22480;50.546;12.292;2023-12-20T07:32:27;12.45;;;7.28;;
36457;SDS011;22480;50.546;12.292;2023-12-20T07:34:53;11.80;;;7.00;;
36457;SDS011;22480;50.546;12.292;2023-12-20T07:37:19;12.35;;;7.72;;
36457;SDS011;22480;50.546;12.292;2023-12-20T07:39:46;14.48;;;7.53;;
36457;SDS011;22480;50.546;12.292;2023-12-20T07:42:11;14.95;;;8.05;;
36457;SDS011;22480;50.546;12.292;2023-12-20T07:44:37;13.65;;;7.95;;
36457;SDS011;22480;50.546;12.292;2023-12-20T07:47:03;15.18;;;9.20;;
36457;SDS011;22480;50.546;12.292;2023-12-20T07:49:30;14.27;;;8.10;;
36457;SDS011;22480;50.546;12.292;2023-12-20T07:51:56;11.73;;;7.18;;
36457;SDS011;22480;50.546;12.292;2023-12-20T07:54:22;12.95;;;7.72;;
36457;SDS011;22480;50.546;12.292;2023-12-20T07:56:48;17.33;;;8.57;;
36457;SDS011;22480;50.546;12.292;2023-12-20T07:59:14;15.30;;;9.77;;
36457;SDS011;22480;50.546;12.292;2023-12-20T08:01:40;13.85;;;8.02;;
36457;SDS011;22480;50.546;12.292;2023-12-20T08:04:05;13.10;;;8.73;;
36457;SDS011;22480;50.546;12.292;2023-12-20T08:06:31;9.57;;;5.75;;
36457;SDS011;22480;50.546;12.292;2023-12-20T08:08:57;8.40;;;5.68;;
36457;SDS011;22480;50.546;12.292;2023-12-20T08:11:22;8.35;;;5.38;;
36457;SDS011;22480;50.546;12.292;2023-12-20T08:13:48;9.35;;;4.53;;
36457;SDS011;22480;50.546;12.292;2023-12-20T08:16:13;6.47;;;4.07;;
36457;SDS011;22480;50.546;12.292;2023-12-20T08:18:40;6.32;;;4.57;;
36457;SDS011;22480;50.546;12.292;2023-12-20T08:21:07;8.10;;;4.05;;
36457;SDS011;22480;50.546;12.292;2023-12-20T08:23:33;9.88;;;5.35;;
36457;SDS011;22480;50.546;12.292;2023-12-20T08:26:03;11.07;;;5.95;;
36457;SDS011;22480;50.546;12.292;2023-12-20T08:28:32;12.55;;;3.67;;
36457;SDS011;22480;50.546;12.292;2023-12-20T08:30:58;4.63;;;3.15;;
36457;SDS011;22480;50.546;12.292;2023-12-20T08:33:23;3.97;;;2.88;;
36457;SDS011;22480;50.546;12.292;2023-12-20T08:35:49;5.57;;;4.07;;
36457;SDS011;22480;50.546;12.292;2023-12-20T08:38:15;7.32;;;5.15;;
36457;SDS011;22480;50.546;12.292;2023-12-20T08:40:41;5.35;;;3.70;;
36457;SDS011;22480;50.546;12.292;2023-12-20T08:43:07;5.43;;;4.03;;
36457;SDS011;22480;50.546;12.292;2023-12-20T08:45:33;7.95;;;5.53;;
36457;SDS011;22480;50.546;12.292;2023-12-20T08:47:58;13.13;;;7.40;;
36457;SDS011;22480;50.546;12.292;2023-12-20T08:50:25;22.35;;;14.70;;
36457;SDS011;22480;50.546;12.292;2023-12-20T08:52:50;20.08;;;13.63;;
36457;SDS011;22480;50.546;12.292;2023-12-20T08:55:16;12.13;;;7.40;;
36457;SDS011;22480;50.546;12.292;2023-12-20T08:57:43;6.35;;;4.35;;
36457;SDS011;22480;50.546;12.292;2023-12-20T09:00:09;9.57;;;4.35;;
36457;SDS011;22480;50.546;12.292;2023-12-20T09:02:35;6.57;;;5.18;;
36457;SDS011;22480;50.546;12.292;2023-12-20T09:05:01;5.20;;;4.18;;
36457;SDS011;22480;50.546;12.292;2023-12-20T09:07:27;9.35;;;4.93;;
36457;SDS011;22480;50.546;12.292;2023-12-20T09:09:55;11.48;;;8.77;;
36457;SDS011;22480;50.546;12.292;2023-12-20T09:12:21;8.52;;;5.60;;
36457;SDS011;22480;50.546;12.292;2023-12-20T09:14:47;8.65;;;3.42;;
36457;SDS011;22480;50.546;12.292;2023-12-20T09:17:18;7.68;;;5.63;;
36457;SDS011;22480;50.546;12.292;2023-12-20T09:19:44;8.83;;;7.63;;
36457;SDS011;22480;50.546;12.292;2023-12-20T09:22:10;9.00;;;6.07;;
36457;SDS011;22480;50.546;12.292;2023-12-20T09:24:37;7.55;;;5.43;;
36457;SDS011;22480;50.546;12.292;2023-12-20T09:27:03;5.88;;;4.38;;
36457;SDS011;22480;50.546;12.292;2023-12-20T09:29:30;13.80;;;5.18;;
36457;SDS011;22480;50.546;12.292;2023-12-20T09:31:56;5.97;;;4.18;;
36457;SDS011;22480;50.546;12.292;2023-12-20T09:34:22;7.30;;;4.20;;
36457;SDS011;22480;50.546;12.292;2023-12-20T09:36:49;5.90;;;3.70;;
36457;SDS011;22480;50.546;12.292;2023-12-20T09:39:15;6.13;;;3.92;;
36457;SDS011;22480;50.546;12.292;2023-12-20T09:41:46;4.20;;;3.80;;
36457;SDS011;22480;50.546;12.292;2023-12-20T09:44:25;8.00;;;3.67;;
36457;SDS011;22480;50.546;12.292;2023-12-20T09:46:50;6.47;;;4.43;;
36457;SDS011;22480;50.546;12.292;2023-12-20T09:49:19;6.78;;;5.13;;
36457;SDS011;22480;50.546;12.292;2023-12-20T09:51:46;7.35;;;4.70;;
36457;SDS011;22480;50.546;12.292;2023-12-20T09:54:16;7.10;;;3.97;;
36457;SDS011;22480;50.546;12.292;2023-12-20T09:59:09;6.43;;;3.65;;
36457;SDS011;22480;50.546;12.292;2023-12-20T10:01:35;5.68;;;3.88;;
36457;SDS011;22480;50.546;12.292;2023-12-20T10:04:01;5.03;;;4.00;;
36457;SDS011;22480;50.546;12.292;2023-12-20T10:06:39;3.00;;;2.30;;
36457;SDS011;22480;50.546;12.292;2023-12-20T10:09:05;4.60;;;3.78;;
36457;SDS011;22480;50.546;12.292;2023-12-20T10:11:31;6.65;;;3.55;;
36457;SDS011;22480;50.546;12.292;2023-12-20T10:14:00;6.00;;;3.80;;
36457;SDS011;22480;50.546;12.292;2023-12-20T10:16:26;5.70;;;4.07;;
36457;SDS011;22480;50.546;12.292;2023-12-20T10:18:53;6.85;;;3.88;;
36457;SDS011;22480;50.546;12.292;2023-12-20T10:21:19;4.97;;;3.97;;
36457;SDS011;22480;50.546;12.292;2023-12-20T10:23:45;9.65;;;4.32;;
36457;SDS011;22480;50.546;12.292;2023-12-20T10:26:20;7.43;;;4.15;;
36457;SDS011;22480;50.546;12.292;2023-12-20T10:28:50;4.25;;;2.80;;
36457;SDS011;22480;50.546;12.292;2023-12-20T10:31:33;4.55;;;2.60;;
36457;SDS011;22480;50.546;12.292;2023-12-20T10:34:01;4.20;;;3.42;;
36457;SDS011;22480;50.546;12.292;2023-12-20T10:36:29;8.93;;;2.95;;
36457;SDS011;22480;50.546;12.292;2023-12-20T10:38:58;4.68;;;2.90;;
36457;SDS011;22480;50.546;12.292;2023-12-20T10:41:31;5.28;;;2.83;;
36457;SDS011;22480;50.546;12.292;2023-12-20T10:44:01;6.43;;;3.33;;
36457;SDS011;22480;50.546;12.292;2023-12-20T10:46:29;5.88;;;3.42;;
36457;SDS011;22480;50.546;12.292;2023-12-20T10:48:57;4.95;;;2.65;;
36457;SDS011;22480;50.546;12.292;2023-12-20T10:51:23;6.03;;;2.60;;
36457;SDS011;22480;50.546;12.292;2023-12-20T10:53:52;7.68;;;2.47;;
36457;SDS011;22480;50.546;12.292;2023-12-20T10:56:18;5.95;;;3.90;;
36457;SDS011;22480;50.546;12.292;2023-12-20T10:58:45;3.67;;;2.60;;
36457;SDS011;22480;50.546;12.292;2023-12-20T11:01:12;4.20;;;2.05;;
36457;SDS011;22480;50.546;12.292;2023-12-20T11:03:44;7.55;;;2.50;;
36457;SDS011;22480;50.546;12.292;2023-12-20T11:14:35;2.70;;;1.85;;
36457;SDS011;22480;50.546;12.292;2023-12-20T11:17:06;3.47;;;2.35;;
36457;SDS011;22480;50.546;12.292;2023-12-20T11:22:21;6.95;;;2.85;;
36457;SDS011;22480;50.546;12.292;2023-12-20T11:24:51;3.22;;;2.08;;
36457;SDS011;22480;50.546;12.292;2023-12-20T11:27:18;4.03;;;2.13;;
36457;SDS011;22480;50.546;12.292;2023-12-20T11:29:51;4.95;;;2.10;;
36457;SDS011;22480;50.546;12.292;2023-12-20T11:32:29;3.78;;;2.88;;
36457;SDS011;22480;50.546;12.292;2023-12-20T11:37:21;3.17;;;2.20;;
36457;SDS011;22480;50.546;12.292;2023-12-20T11:39:54;5.43;;;2.22;;
36457;SDS011;22480;50.546;12.292;2023-12-20T11:42:21;2.55;;;1.63;;
36457;SDS011;22480;50.546;12.292;2023-12-20T11:44:47;4.45;;;1.98;;
36457;SDS011;22480;50.546;12.292;2023-12-20T11:47:13;5.72;;;2.70;;
36457;SDS011;22480;50.546;12.292;2023-12-20T11:49:40;3.97;;;1.80;;
36457;SDS011;22480;50.546;12.292;2023-12-20T11:52:06;5.30;;;2.05;;
36457;SDS011;22480;50.546;12.292;2023-12-20T11:54:32;5.70;;;2.58;;
36457;SDS011;22480;50.546;12.292;2023-12-20T11:56:57;7.63;;;4.53;;
36457;SDS011;22480;50.546;12.292;2023-12-20T11:59:23;3.85;;;1.98;;
36457;SDS011;22480;50.546;12.292;2023-12-20T12:01:51;2.53;;;1.58;;
36457;SDS011;22480;50.546;12.292;2023-12-20T12:04:17;3.33;;;1.60;;
36457;SDS011;22480;50.546;12.292;2023-12-20T12:06:44;4.50;;;1.75;;
36457;SDS011;22480;50.546;12.292;2023-12-20T12:09:10;3.92;;;1.73;;
36457;SDS011;22480;50.546;12.292;2023-12-20T12:11:36;6.32;;;2.03;;
36457;SDS011;22480;50.546;12.292;2023-12-20T12:14:02;4.72;;;1.70;;
36457;SDS011;22480;50.546;12.292;2023-12-20T12:16:28;4.10;;;1.80;;
36457;SDS011;22480;50.546;12.292;2023-12-20T12:18:57;5.55;;;1.92;;
36457;SDS011;22480;50.546;12.292;2023-12-20T12:21:24;3.53;;;1.50;;
36457;SDS011;22480;50.546;12.292;2023-12-20T12:23:50;2.85;;;2.00;;
36457;SDS011;22480;50.546;12.292;2023-12-20T12:26:16;2.75;;;1.80;;
36457;SDS011;22480;50.546;12.292;2023-12-20T12:28:41;2.85;;;1.70;;
36457;SDS011;22480;50.546;12.292;2023-12-20T12:31:08;3.13;;;1.83;;
36457;SDS011;22480;50.546;12.292;2023-12-20T12:33:37;4.25;;;1.95;;
36457;SDS011;22480;50.546;12.292;2023-12-20T12:36:03;4.28;;;1.45;;
36457;SDS011;22480;50.546;12.292;2023-12-20T12:38:32;2.38;;;1.63;;
36457;SDS011;22480;50.546;12.292;2023-12-20T12:40:58;2.95;;;1.85;;
36457;SDS011;22480;50.546;12.292;2023-12-20T12:43:25;2.72;;;1.42;;
36457;SDS011;22480;50.546;12.292;2023-12-20T12:45:50;5.82;;;1.70;;
36457;SDS011;22480;50.546;12.292;2023-12-20T12:48:16;3.60;;;1.55;;
36457;SDS011;22480;50.546;12.292;2023-12-20T12:50:42;5.75;;;3.17;;
36457;SDS011;22480;50.546;12.292;2023-12-20T12:53:08;6.68;;;3.00;;
36457;SDS011;22480;50.546;12.292;2023-12-20T12:55:34;5.18;;;2.20;;
36457;SDS011;22480;50.546;12.292;2023-12-20T12:58:01;5.72;;;1.55;;
36457;SDS011;22480;50.546;12.292;2023-12-20T13:00:27;2.28;;;1.38;;
36457;SDS011;22480;50.546;12.292;2023-12-20T13:02:53;3.35;;;1.45;;
36457;SDS011;22480;50.546;12.292;2023-12-20T13:05:18;2.13;;;1.40;;
36457;SDS011;22480;50.546;12.292;2023-12-20T13:07:44;3.70;;;1.60;;
36457;SDS011;22480;50.546;12.292;2023-12-20T13:10:13;4.20;;;2.05;;
36457;SDS011;22480;50.546;12.292;2023-12-20T13:12:41;3.78;;;1.45;;
36457;SDS011;22480;50.546;12.292;2023-12-20T13:15:07;3.13;;;1.70;;
36457;SDS011;22480;50.546;12.292;2023-12-20T13:17:34;2.58;;;1.48;;
36457;SDS011;22480;50.546;12.292;2023-12-20T13:19:59;3.20;;;2.00;;
36457;SDS011;22480;50.546;12.292;2023-12-20T13:22:25;2.28;;;1.70;;
36457;SDS011;22480;50.546;12.292;2023-12-20T13:24:51;2.28;;;1.35;;
36457;SDS011;22480;50.546;12.292;2023-12-20T13:27:16;3.22;;;1.40;;
36457;SDS011;22480;50.546;12.292;2023-12-20T13:29:42;3.72;;;1.58;;
36457;SDS011;22480;50.546;12.292;2023-12-20T13:32:08;5.25;;;1.48;;
36457;SDS011;22480;50.546;12.292;2023-12-20T13:34:34;3.67;;;1.23;;
36457;SDS011;22480;50.546;12.292;2023-12-20T13:36:59;3.17;;;1.50;;
36457;SDS011;22480;50.546;12.292;2023-12-20T13:39:25;1.65;;;0.90;;
36457;SDS011;22480;50.546;12.292;2023-12-20T13:41:50;1.50;;;1.00;;
36457;SDS011;22480;50.546;12.292;2023-12-20T13:44:16;4.43;;;1.67;;
36457;SDS011;22480;50.546;12.292;2023-12-20T13:46:42;3.97;;;1.48;;
36457;SDS011;22480;50.546;12.292;2023-12-20T13:49:07;1.42;;;1.10;;
36457;SDS011;22480;50.546;12.292;2023-12-20T13:51:33;0.98;;;0.77;;
36457;SDS011;22480;50.546;12.292;2023-12-20T13:53:59;1.90;;;1.00;;
36457;SDS011;22480;50.546;12.292;2023-12-20T13:56:25;4.10;;;1.77;;
36457;SDS011;22480;50.546;12.292;2023-12-20T13:58:51;4.43;;;1.70;;
36457;SDS011;22480;50.546;12.292;2023-12-20T14:01:16;2.72;;;1.33;;
36457;SDS011;22480;50.546;12.292;2023-12-20T14:03:42;3.13;;;1.27;;
36457;SDS011;22480;50.546;12.292;2023-12-20T14:06:08;8.07;;;2.30;;
36457;SDS011;22480;50.546;12.292;2023-12-20T14:08:34;3.70;;;1.80;;
36457;SDS011;22480;50.546;12.292;2023-12-20T14:11:01;4.13;;;1.30;;
36457;SDS011;22480;50.546;12.292;2023-12-20T14:13:26;3.35;;;2.20;;
36457;SDS011;22480;50.546;12.292;2023-12-20T14:15:52;5.70;;;3.13;;
36457;SDS011;22480;50.546;12.292;2023-12-20T14:18:19;4.18;;;1.77;;
36457;SDS011;22480;50.546;12.292;2023-12-20T14:20:45;3.95;;;2.05;;
36457;SDS011;22480;50.546;12.292;2023-12-20T14:23:12;2.88;;;1.40;;
36457;SDS011;22480;50.546;12.292;2023-12-20T14:25:40;2.78;;;1.00;;
36457;SDS011;22480;50.546;12.292;2023-12-20T14:28:06;3.85;;;1.67;;
36457;SDS011;22480;50.546;12.292;2023-12-20T14:30:32;2.92;;;1.92;;
36457;SDS011;22480;50.546;12.292;2023-12-20T14:32:57;1.13;;;1.02;;
36457;SDS011;22480;50.546;12.292;2023-12-20T14:35:23;2.40;;;1.50;;
36457;SDS011;22480;50.546;12.292;2023-12-20T14:37:49;1.92;;;1.50;;
36457;SDS011;22480;50.546;12.292;2023-12-20T14:40:15;2.95;;;1.60;;
36457;SDS011;22480;50.546;12.292;2023-12-20T14:42:42;2.45;;;1.13;;